KBKW/BKW METAR and TAF weather

Enter ICAO airport designator
Station Type Date Time Source
KBKW METAR 2021/03/08 10:51 UTC NOAA

KBKW 081051Z AUTO 00000KT 10SM CLR M05/M13 A3045 RMK AO2 SLP343 T10501128 TSNO $


Station Type Date Time Source
KBKW Decoded METAR 2021/03/08 10:51 UTC NOAA

RALEIGH COUNTY MEM AIRPORT , WV, United States (KBKW) 37-48N 081-07W 764M
Mar 08, 2021 - 05:51 AM EST / 2021.03.08 1051 UTC
Wind: Calm:0
Visibility: 10 mile(s):0
Sky conditions: clear
Temperature: 23.0 F (-5.0 C)
Dew Point: 9.0 F (-12.8 C)
Relative Humidity: 54%
Pressure (altimeter): 30.45 in. Hg (1031 hPa)
ob: KBKW 081051Z AUTO 00000KT 10SM CLR M05/M13 A3045 RMK AO2 SLP343 T10501128 TSNO
cycle: 11

Station Type Date Time Source
KBKW TAF 2021/03/08 12:36 UTC NOAA

TAF KBKW 081135Z 0812/0912 24004KT P6SM FEW250
FM081500 28010KT P6SM FEW250
FM090100 24004KT P6SM SKC

Example: see airport list